createdAt,value
2022-12-16T00:02:01.348Z,93824.25
2022-12-16T00:04:28.089Z,93829.63
2022-12-16T00:06:54.951Z,93832.00
2022-12-16T00:09:21.556Z,93833.59
2022-12-16T00:11:48.004Z,93826.81
2022-12-16T00:14:14.549Z,93831.09
2022-12-16T00:16:41.254Z,93836.94
2022-12-16T00:19:07.897Z,93828.59
2022-12-16T00:21:34.988Z,93835.84
2022-12-16T00:24:01.425Z,93831.75
2022-12-16T00:26:27.890Z,93833.63
2022-12-16T00:28:54.803Z,93832.53
2022-12-16T00:31:21.427Z,93838.69
2022-12-16T00:33:48.030Z,93833.34
2022-12-16T00:36:14.541Z,93842.16
2022-12-16T00:38:41.022Z,93834.13
2022-12-16T00:41:07.628Z,93833.81
2022-12-16T00:43:34.837Z,93832.72
2022-12-16T00:46:01.610Z,93836.50
2022-12-16T00:48:28.201Z,93841.06
2022-12-16T00:50:55.646Z,93845.66
2022-12-16T00:53:24.174Z,93843.28
2022-12-16T00:55:51.694Z,93849.41
2022-12-16T00:58:18.601Z,93854.00
2022-12-16T01:00:45.145Z,93862.03
2022-12-16T01:03:15.441Z,93857.75
2022-12-16T01:05:44.522Z,93857.75
2022-12-16T01:08:11.052Z,93864.19
2022-12-16T01:10:37.480Z,93863.13
2022-12-16T01:13:04.266Z,93869.56
2022-12-16T01:15:30.762Z,93868.78
2022-12-16T01:17:57.249Z,93874.91
2022-12-16T01:20:23.959Z,93876.03
2022-12-16T01:22:50.571Z,93872.25
2022-12-16T01:25:17.173Z,93878.41
2022-12-16T01:27:43.732Z,93886.75
2022-12-16T01:30:10.983Z,93888.94
2022-12-16T01:32:37.928Z,93894.28
2022-12-16T01:35:14.112Z,93890.03
2022-12-16T01:37:50.211Z,93900.47
2022-12-16T01:40:20.548Z,93900.47
2022-12-16T01:42:47.112Z,93898.38
2022-12-16T01:45:33.552Z,93901.38
2022-12-16T01:48:35.604Z,93900.88
2022-12-16T01:51:08.214Z,93896.00
2022-12-16T01:53:37.298Z,93900.28
2022-12-16T01:56:03.993Z,93899.47
2022-12-16T01:58:34.794Z,93908.63
2022-12-16T02:01:01.900Z,93904.84
2022-12-16T02:03:33.753Z,93901.06
2022-12-16T02:06:02.078Z,93896.97
2022-12-16T02:08:28.537Z,93893.63
2022-12-16T02:10:57.863Z,93896.50
2022-12-16T02:13:42.473Z,93900.28
2022-12-16T02:16:18.217Z,93898.69
2022-12-16T02:19:15.373Z,93894.72
2022-12-16T02:22:06.842Z,93901.66
2022-12-16T02:24:51.443Z,93898.69
2022-12-16T02:28:03.489Z,93905.44
2022-12-16T02:30:51.367Z,93895.53
2022-12-16T02:33:43.551Z,93910.78
2022-12-16T02:36:33.332Z,93914.59
2022-12-16T02:39:01.601Z,93920.72
2022-12-16T02:41:42.054Z,93931.44
2022-12-16T02:44:10.740Z,93930.66
2022-12-16T02:46:57.460Z,93932.06
2022-12-16T02:49:24.087Z,93935.22
2022-12-16T02:51:50.660Z,93940.28
2022-12-16T02:54:18.145Z,93951.50
2022-12-16T02:57:24.473Z,93950.22
2022-12-16T02:59:56.845Z,93947.53
2022-12-16T03:02:53.531Z,93956.34
2022-12-16T03:05:28.506Z,93960.16
2022-12-16T03:07:59.104Z,93957.16
2022-12-16T03:10:30.448Z,93955.75
2022-12-16T03:13:00.106Z,93955.75
2022-12-16T03:15:30.327Z,93954.97
2022-12-16T03:17:57.993Z,93960.31
2022-12-16T03:20:24.700Z,93960.31
2022-12-16T03:22:54.104Z,93964.91
2022-12-16T03:25:21.430Z,93957.66
2022-12-16T03:28:13.541Z,93952.28
2022-12-16T03:30:46.513Z,93940.47
2022-12-16T03:33:24.635Z,93939.97
2022-12-16T03:36:00.014Z,93939.50
2022-12-16T03:38:27.954Z,93946.53
2022-12-16T03:40:57.038Z,93942.28
2022-12-16T03:43:24.816Z,93940.41
2022-12-16T03:45:56.823Z,93934.03
2022-12-16T03:48:25.736Z,93940.00
2022-12-16T03:50:52.309Z,93943.00
2022-12-16T03:53:18.897Z,93943.00
2022-12-16T03:55:45.571Z,93953.22
2022-12-16T03:58:12.011Z,93961.25
2022-12-16T04:00:38.459Z,93972.56
2022-12-16T04:03:05.264Z,93969.91
2022-12-16T04:05:31.967Z,93976.97
2022-12-16T04:08:01.798Z,93988.28
2022-12-16T04:10:29.150Z,93990.75
2022-12-16T04:12:55.624Z,94004.25
2022-12-16T04:15:22.293Z,94009.41
2022-12-16T04:17:48.845Z,94010.50
2022-12-16T04:20:17.831Z,94004.16
2022-12-16T04:22:44.511Z,93996.72
2022-12-16T04:25:15.356Z,94009.63
2022-12-16T04:27:42.229Z,94018.25
2022-12-16T04:30:09.484Z,94012.69
2022-12-16T04:32:36.018Z,94024.56
2022-12-16T04:35:02.560Z,94038.25
2022-12-16T04:37:29.062Z,94031.03
2022-12-16T04:39:55.624Z,94031.63
2022-12-16T04:42:22.277Z,94045.09
2022-12-16T04:44:48.884Z,94047.56
2022-12-16T04:47:15.328Z,94049.25
2022-12-16T04:49:41.909Z,94049.34
2022-12-16T04:52:08.361Z,94042.41
2022-12-16T04:54:34.886Z,94039.25
2022-12-16T04:57:01.405Z,94042.50
2022-12-16T04:59:27.926Z,94047.34
2022-12-16T05:01:54.525Z,94050.09
2022-12-16T05:04:21.202Z,94062.22
2022-12-16T05:06:47.696Z,94055.56
2022-12-16T05:09:14.328Z,94053.94
2022-12-16T05:11:40.985Z,94069.50
2022-12-16T05:14:07.465Z,94074.94
2022-12-16T05:16:34.178Z,94096.44
2022-12-16T05:19:00.737Z,94101.06
2022-12-16T05:21:27.406Z,94099.75
2022-12-16T05:23:54.226Z,94099.56
2022-12-16T05:26:20.863Z,94104.13
2022-12-16T05:28:47.337Z,94102.50
2022-12-16T05:31:14.076Z,94107.06
2022-12-16T05:33:40.834Z,94108.66
2022-12-16T05:36:08.187Z,94104.91
2022-12-16T05:38:34.798Z,94112.44
2022-12-16T05:41:01.296Z,94122.31
2022-12-16T05:43:27.771Z,94114.56
2022-12-16T05:45:54.443Z,94117.56
2022-12-16T05:48:20.937Z,94105.28
2022-12-16T05:50:47.402Z,94101.00
2022-12-16T05:53:13.913Z,94094.06
2022-12-16T05:55:41.920Z,94115.38
2022-12-16T05:58:08.870Z,94124.50
2022-12-16T06:00:36.338Z,94121.81
2022-12-16T06:03:02.860Z,94130.94
2022-12-16T06:05:29.473Z,94134.69
2022-12-16T06:07:56.040Z,94142.22
2022-12-16T06:10:22.672Z,94131.81
2022-12-16T06:12:49.245Z,94141.69
2022-12-16T06:15:15.777Z,94151.59
2022-12-16T06:17:51.422Z,94156.44
2022-12-16T06:20:18.075Z,94164.97
2022-12-16T06:22:51.112Z,94172.50
2022-12-16T06:25:17.901Z,94178.03
2022-12-16T06:27:50.645Z,94182.09
2022-12-16T06:30:17.141Z,94189.31
2022-12-16T06:32:43.591Z,94192.00
2022-12-16T06:35:10.107Z,94188.25
2022-12-16T06:37:36.910Z,94189.59
2022-12-16T06:40:03.710Z,94197.34
2022-12-16T06:42:30.254Z,94203.75
2022-12-16T06:44:56.768Z,94201.09
2022-12-16T06:47:23.318Z,94201.38
2022-12-16T06:49:50.001Z,94205.94
2022-12-16T06:52:16.628Z,94220.09
2022-12-16T06:54:43.227Z,94205.44
2022-12-16T06:57:09.715Z,94209.38
2022-12-16T06:59:36.235Z,94218.50
2022-12-16T07:02:03.952Z,94217.69
2022-12-16T07:04:30.649Z,94231.88
2022-12-16T07:06:57.274Z,94232.16
2022-12-16T07:09:23.827Z,94246.59
2022-12-16T07:11:50.293Z,94242.03
2022-12-16T07:14:16.742Z,94247.41
2022-12-16T07:16:43.415Z,94247.41
2022-12-16T07:19:09.964Z,94247.69
2022-12-16T07:21:36.729Z,94249.28
2022-12-16T07:24:04.195Z,94253.03
2022-12-16T07:26:30.690Z,94260.25
2022-12-16T07:28:57.257Z,94272.84
2022-12-16T07:31:23.818Z,94283.53
2022-12-16T07:33:50.323Z,94283.31
2022-12-16T07:36:16.876Z,94281.44
2022-12-16T07:38:43.561Z,94282.50
2022-12-16T07:41:10.293Z,94285.19
2022-12-16T07:43:36.842Z,94297.47
2022-12-16T07:46:03.606Z,94305.00
2022-12-16T07:48:30.113Z,94307.13
2022-12-16T07:50:56.775Z,94314.38
2022-12-16T07:53:25.643Z,94312.47
2022-12-16T07:55:56.084Z,94321.06
2022-12-16T07:58:22.761Z,94313.31
2022-12-16T08:00:49.279Z,94320.06
2022-12-16T08:03:16.030Z,94320.34
2022-12-16T08:05:42.524Z,94323.78
2022-12-16T08:08:09.056Z,94336.66
2022-12-16T08:10:35.765Z,94340.13
2022-12-16T08:13:04.263Z,94335.88
2022-12-16T08:15:31.057Z,94334.25
2022-12-16T08:17:57.547Z,94345.47
2022-12-16T08:20:24.164Z,94350.81
2022-12-16T08:22:50.627Z,94355.09
2022-12-16T08:25:17.928Z,94358.53
2022-12-16T08:27:44.455Z,94369.47
2022-12-16T08:30:11.482Z,94367.06
2022-12-16T08:32:38.058Z,94373.50
2022-12-16T08:35:05.109Z,94371.91
2022-12-16T08:37:31.574Z,94374.28
2022-12-16T08:40:25.585Z,94383.09
2022-12-16T08:42:44.801Z,94385.78
2022-12-16T08:45:11.345Z,94389.56
2022-12-16T08:47:37.854Z,94385.78
2022-12-16T08:50:05.439Z,94391.94
2022-12-16T08:52:31.920Z,94393.22
2022-12-16T08:54:58.502Z,94393.50
2022-12-16T08:57:24.958Z,94397.47
2022-12-16T08:59:51.449Z,94401.47
2022-12-16T09:02:18.565Z,94406.53
2022-12-16T09:04:45.594Z,94412.38
2022-12-16T09:07:12.176Z,94410.47
2022-12-16T09:09:38.675Z,94412.56
2022-12-16T09:12:05.414Z,94409.63
2022-12-16T09:14:31.919Z,94418.16
2022-12-16T09:16:58.485Z,94419.44
2022-12-16T09:19:25.019Z,94424.22
2022-12-16T09:21:51.715Z,94434.91
2022-12-16T09:24:18.291Z,94435.75
2022-12-16T09:26:44.909Z,94440.28
2022-12-16T09:29:11.507Z,94440.28
2022-12-16T09:31:38.166Z,94452.56
2022-12-16T09:34:04.863Z,94455.75
2022-12-16T09:36:31.416Z,94455.53
2022-12-16T09:38:57.851Z,94465.16
2022-12-16T09:41:39.795Z,94467.84
2022-12-16T09:44:32.386Z,94468.34
2022-12-16T09:47:18.279Z,94472.63
2022-12-16T09:49:52.555Z,94484.66
2022-12-16T09:52:21.268Z,94484.66
2022-12-16T09:54:48.076Z,94489.75
2022-12-16T09:57:15.537Z,94483.06
2022-12-16T09:59:50.098Z,94492.97
2022-12-16T10:02:19.182Z,94492.19
2022-12-16T10:04:52.124Z,94495.94
2022-12-16T10:07:21.015Z,94491.38
2022-12-16T10:10:06.361Z,94492.47
2022-12-16T10:13:06.571Z,94496.22
2022-12-16T10:15:59.524Z,94489.78
2022-12-16T10:18:39.415Z,94496.44
2022-12-16T10:21:09.755Z,94502.59
2022-12-16T10:24:01.971Z,94506.56
2022-12-16T10:26:57.339Z,94511.38
2022-12-16T10:29:28.218Z,94512.69
2022-12-16T10:31:54.995Z,94504.59
2022-12-16T10:34:28.631Z,94506.22
2022-12-16T10:36:55.457Z,94503.50
2022-12-16T10:39:32.212Z,94508.56
2022-12-16T10:42:01.766Z,94506.09
2022-12-16T10:44:55.731Z,94511.44
2022-12-16T10:47:22.539Z,94510.34
2022-12-16T10:49:55.004Z,94512.50
2022-12-16T10:52:21.672Z,94516.53
2022-12-16T10:55:11.292Z,94516.03
2022-12-16T10:58:03.568Z,94520.03
2022-12-16T11:00:46.217Z,94529.16
2022-12-16T11:03:23.418Z,94531.78
2022-12-16T11:05:50.410Z,94529.69
2022-12-16T11:08:32.660Z,94528.34
2022-12-16T11:11:12.972Z,94531.84
2022-12-16T11:13:42.131Z,94524.88
2022-12-16T11:16:14.335Z,94531.56
2022-12-16T11:18:50.110Z,94538.78
2022-12-16T11:21:21.887Z,94531.56
2022-12-16T11:24:04.983Z,94530.47
2022-12-16T11:26:36.417Z,94529.91
2022-12-16T11:29:11.186Z,94527.78
2022-12-16T11:31:37.867Z,94528.00
2022-12-16T11:34:05.211Z,94529.53
2022-12-16T11:36:34.098Z,94527.09
2022-12-16T11:39:01.984Z,94532.16
2022-12-16T11:41:33.844Z,94524.13
2022-12-16T11:44:02.250Z,94537.53
2022-12-16T11:46:29.243Z,94524.63
2022-12-16T11:49:04.954Z,94545.53
2022-12-16T11:51:34.640Z,94536.44
2022-12-16T11:54:21.055Z,94540.19
2022-12-16T11:56:49.521Z,94539.69
2022-12-16T11:59:30.656Z,94551.97
2022-12-16T12:02:01.308Z,94547.72
2022-12-16T12:04:28.048Z,94553.06
2022-12-16T12:07:37.421Z,94542.09
2022-12-16T12:10:20.489Z,94542.38
2022-12-16T12:12:59.027Z,94556.03
2022-12-16T12:15:40.841Z,94566.47
2022-12-16T12:18:45.243Z,94576.94
2022-12-16T12:21:22.586Z,94568.91
2022-12-16T12:23:58.080Z,94567.63
2022-12-16T12:26:33.434Z,94562.00
2022-12-16T12:29:26.490Z,94557.50
2022-12-16T12:31:58.502Z,94570.44
2022-12-16T12:34:45.660Z,94568.88
2022-12-16T12:37:27.593Z,94576.94
2022-12-16T12:40:07.450Z,94580.97
2022-12-16T12:42:51.647Z,94581.50
2022-12-16T12:45:59.008Z,94587.97
2022-12-16T12:48:53.035Z,94587.75
2022-12-16T12:51:33.597Z,94593.38
2022-12-16T12:54:11.860Z,94598.72
2022-12-16T12:56:53.316Z,94597.91
2022-12-16T12:59:28.684Z,94600.31
2022-12-16T13:01:57.047Z,94600.03
2022-12-16T13:04:24.366Z,94600.56
2022-12-16T13:06:52.394Z,94601.34
2022-12-16T13:09:37.580Z,94604.56
2022-12-16T13:12:06.879Z,94608.03
2022-12-16T13:14:33.342Z,94612.59
2022-12-16T13:16:59.981Z,94609.09
2022-12-16T13:19:28.994Z,94613.66
2022-12-16T13:21:56.418Z,94621.41
2022-12-16T13:24:26.739Z,94622.00
2022-12-16T13:27:01.864Z,94636.16
2022-12-16T13:29:31.274Z,94639.66
2022-12-16T13:32:02.598Z,94636.72
2022-12-16T13:34:29.278Z,94634.34
2022-12-16T13:36:58.152Z,94625.81
2022-12-16T13:39:30.165Z,94640.22
2022-12-16T13:42:00.417Z,94643.97
2022-12-16T13:44:42.146Z,94656.03
2022-12-16T13:47:31.167Z,94658.97
2022-12-16T13:49:57.853Z,94664.31
2022-12-16T13:52:33.046Z,94669.13
2022-12-16T13:55:10.975Z,94670.22
2022-12-16T13:57:42.262Z,94677.69
2022-12-16T14:00:28.852Z,94683.63
2022-12-16T14:02:58.524Z,94683.63
2022-12-16T14:05:30.162Z,94682.00
2022-12-16T14:07:57.878Z,94683.06
2022-12-16T14:10:32.447Z,94694.84
2022-12-16T14:13:06.292Z,94700.47
2022-12-16T14:15:40.267Z,94709.81
2022-12-16T14:18:19.137Z,94718.91
2022-12-16T14:20:58.988Z,94712.53
2022-12-16T14:23:56.258Z,94713.84
2022-12-16T14:26:23.901Z,94726.44
2022-12-16T14:28:50.455Z,94732.84
2022-12-16T14:31:41.286Z,94733.94
2022-12-16T14:34:17.778Z,94739.53
2022-12-16T14:36:45.470Z,94754.22
2022-12-16T14:39:20.052Z,94758.25
2022-12-16T14:41:51.030Z,94761.19
2022-12-16T14:44:20.702Z,94760.91
2022-12-16T14:46:53.105Z,94761.19
2022-12-16T14:49:28.535Z,94764.41
2022-12-16T14:51:54.998Z,94771.63
2022-12-16T14:54:27.329Z,94776.97
2022-12-16T14:56:57.624Z,94773.50
2022-12-16T14:59:24.166Z,94770.31
2022-12-16T15:01:53.360Z,94784.47
2022-12-16T15:04:21.083Z,94791.13
2022-12-16T15:06:52.877Z,94784.75
2022-12-16T15:09:27.515Z,94798.91
2022-12-16T15:11:55.689Z,94798.34
2022-12-16T15:14:29.274Z,94801.56
2022-12-16T15:16:57.194Z,94799.41
2022-12-16T15:19:24.007Z,94805.28
2022-12-16T15:21:50.529Z,94801.28
2022-12-16T15:24:20.667Z,94810.34
2022-12-16T15:26:47.187Z,94806.91
2022-12-16T15:29:36.535Z,94816.22
2022-12-16T15:32:25.183Z,94821.56
2022-12-16T15:34:51.690Z,94822.66
2022-12-16T15:37:20.281Z,94821.56
2022-12-16T15:39:46.950Z,94829.03
2022-12-16T15:42:27.886Z,94833.03
2022-12-16T15:44:54.448Z,94839.47
2022-12-16T15:47:39.108Z,94841.56
2022-12-16T15:50:06.681Z,94846.91
2022-12-16T15:52:39.249Z,94847.72
2022-12-16T15:55:22.381Z,94853.06
2022-12-16T15:57:58.376Z,94855.47
2022-12-16T16:00:27.737Z,94857.06
2022-12-16T16:02:54.431Z,94858.16
2022-12-16T16:05:24.753Z,94870.66
2022-12-16T16:07:51.382Z,94873.34
2022-12-16T16:10:23.629Z,94866.16
2022-12-16T16:12:50.198Z,94872.28
2022-12-16T16:15:16.703Z,94875.47
2022-12-16T16:17:43.657Z,94877.63
2022-12-16T16:20:14.897Z,94877.09
2022-12-16T16:22:41.385Z,94885.09
2022-12-16T16:25:11.576Z,94886.94
2022-12-16T16:27:38.056Z,94883.47
2022-12-16T16:30:05.157Z,94894.41
2022-12-16T16:32:31.714Z,94887.19
2022-12-16T16:34:58.187Z,94899.22
2022-12-16T16:37:24.741Z,94896.28
2022-12-16T16:39:51.364Z,94896.28
2022-12-16T16:42:18.054Z,94902.44
2022-12-16T16:44:44.599Z,94907.50
2022-12-16T16:47:16.760Z,94909.34
2022-12-16T16:49:46.567Z,94925.59
2022-12-16T16:52:15.940Z,94919.22
2022-12-16T16:54:42.515Z,94929.91
2022-12-16T16:57:10.067Z,94929.91
2022-12-16T16:59:36.604Z,94925.59
2022-12-16T17:02:03.120Z,94929.34
2022-12-16T17:04:29.733Z,94938.94
2022-12-16T17:06:56.315Z,94945.91
2022-12-16T17:09:25.536Z,94945.13
2022-12-16T17:11:53.910Z,94951.25
2022-12-16T17:14:21.378Z,94952.03
2022-12-16T17:16:48.011Z,94955.78
2022-12-16T17:19:14.500Z,94966.47
2022-12-16T17:21:41.113Z,94954.16
2022-12-16T17:24:07.638Z,94955.22
2022-12-16T17:26:34.521Z,94965.63
2022-12-16T17:29:01.019Z,94970.47
2022-12-16T17:31:27.673Z,94964.31
2022-12-16T17:33:54.206Z,94973.13
2022-12-16T17:36:20.772Z,94977.66
2022-12-16T17:38:48.563Z,94986.47
2022-12-16T17:41:15.059Z,94983.81
2022-12-16T17:43:41.644Z,94984.63
2022-12-16T17:46:10.955Z,94991.53
2022-12-16T17:48:41.436Z,94992.63
2022-12-16T17:51:10.649Z,94987.28
2022-12-16T17:53:37.330Z,94999.28
2022-12-16T17:56:05.119Z,95003.59
2022-12-16T17:58:37.996Z,95015.31
2022-12-16T18:01:06.542Z,95006.78
2022-12-16T18:03:33.734Z,95013.75
2022-12-16T18:06:00.594Z,95018.56
2022-12-16T18:08:27.148Z,95020.97
2022-12-16T18:10:57.940Z,95019.94
2022-12-16T18:13:24.384Z,95026.59
2022-12-16T18:15:52.044Z,95023.66
2022-12-16T18:21:31.606Z,95041.56
2022-12-16T18:24:06.707Z,95041.56
2022-12-16T18:26:33.182Z,95038.09
2022-12-16T18:28:59.701Z,95045.81
2022-12-16T18:31:26.389Z,95039.16
2022-12-16T18:33:52.972Z,95043.69
2022-12-16T18:36:19.544Z,95058.38
2022-12-16T18:38:46.152Z,95058.13
2022-12-16T18:41:18.804Z,95056.78
2022-12-16T18:43:45.388Z,95061.31
2022-12-16T18:46:11.884Z,95065.06
2022-12-16T18:48:39.182Z,95059.97
2022-12-16T18:51:05.844Z,95071.16
2022-12-16T18:53:32.876Z,95077.03
2022-12-16T18:56:08.245Z,95079.19
2022-12-16T18:58:50.771Z,95075.94
2022-12-16T19:01:18.002Z,95081.53
2022-12-16T19:03:44.540Z,95091.41
2022-12-16T19:06:11.019Z,95083.66
2022-12-16T19:08:37.628Z,95092.22
2022-12-16T19:11:04.181Z,95098.63
2022-12-16T19:13:30.662Z,95088.75
2022-12-16T19:15:57.989Z,95094.88
2022-12-16T19:18:27.514Z,95095.72
2022-12-16T19:20:57.374Z,95100.22
2022-12-16T19:23:23.945Z,95098.63
2022-12-16T19:26:00.177Z,95099.69
2022-12-16T19:28:26.788Z,95103.41
2022-12-16T19:30:56.924Z,95111.97
2022-12-16T19:33:23.459Z,95118.38
2022-12-16T19:35:49.999Z,95121.84
2022-12-16T19:38:16.500Z,95129.03
2022-12-16T19:40:54.871Z,95130.91
2022-12-16T19:43:23.213Z,95134.38
2022-12-16T19:45:56.376Z,95133.84
2022-12-16T19:48:23.202Z,95136.53
2022-12-16T19:50:57.989Z,95130.91
2022-12-16T19:53:24.444Z,95136.22
2022-12-16T19:56:00.971Z,95146.91
2022-12-16T19:58:27.507Z,95141.56
2022-12-16T20:00:54.018Z,95147.16
2022-12-16T20:03:20.639Z,95145.28
2022-12-16T20:05:47.183Z,95154.59
2022-12-16T20:08:14.630Z,95156.47
2022-12-16T20:10:41.183Z,95157.00
2022-12-16T20:13:09.753Z,95166.63
2022-12-16T20:15:36.275Z,95166.88
2022-12-16T20:18:06.044Z,95175.91
2022-12-16T20:20:32.615Z,95180.47
2022-12-16T20:22:59.287Z,95184.97
2022-12-16T20:25:26.394Z,95181.25
2022-12-16T20:27:52.919Z,95184.97
2022-12-16T20:30:19.913Z,95191.94
2022-12-16T20:32:47.355Z,95199.44
2022-12-16T20:35:14.226Z,95199.69
2022-12-16T20:37:40.772Z,95203.97
2022-12-16T20:40:07.806Z,95214.41
2022-12-16T20:42:34.471Z,95209.06
2022-12-16T20:45:00.939Z,95213.56
2022-12-16T20:47:27.418Z,95220.28
2022-12-16T20:49:53.889Z,95213.88
2022-12-16T20:52:22.768Z,95227.22
2022-12-16T20:54:49.280Z,95227.78
2022-12-16T20:57:15.777Z,95231.25
2022-12-16T20:59:42.335Z,95248.63
2022-12-16T21:02:26.821Z,95253.13
2022-12-16T21:04:56.865Z,95253.13
2022-12-16T21:07:23.443Z,95253.97
2022-12-16T21:09:49.976Z,95256.38
2022-12-16T21:12:16.766Z,95256.63
2022-12-16T21:14:43.322Z,95262.75
2022-12-16T21:17:09.920Z,95262.50
2022-12-16T21:19:36.438Z,95268.09
2022-12-16T21:22:02.956Z,95267.06
2022-12-16T21:24:29.506Z,95265.44
2022-12-16T21:26:56.322Z,95278.53
2022-12-16T21:29:22.817Z,95289.22
2022-12-16T21:31:50.257Z,95291.06
2022-12-16T21:34:16.885Z,95282.25
2022-12-16T21:36:43.648Z,95285.75
2022-12-16T21:39:10.096Z,95298.84
2022-12-16T21:41:36.666Z,95299.09
2022-12-16T21:44:03.132Z,95302.31
2022-12-16T21:46:29.701Z,95297.75
2022-12-16T21:48:56.374Z,95300.16
2022-12-16T21:51:23.290Z,95303.66
2022-12-16T21:53:53.481Z,95309.81
2022-12-16T21:56:20.201Z,95312.47
2022-12-16T21:58:46.772Z,95315.41
2022-12-16T22:01:13.425Z,95323.41
2022-12-16T22:03:40.858Z,95323.66
2022-12-16T22:06:07.739Z,95325.53
2022-12-16T22:08:34.273Z,95323.38
2022-12-16T22:11:08.795Z,95336.41
2022-12-16T22:13:36.465Z,95343.59
2022-12-16T22:16:06.126Z,95342.00
2022-12-16T22:18:32.615Z,95340.63
2022-12-16T22:21:01.611Z,95349.44
2022-12-16T22:23:29.393Z,95360.09
2022-12-16T22:26:00.662Z,95360.09
2022-12-16T22:28:27.143Z,95352.09
2022-12-16T22:33:41.642Z,95366.03
2022-12-16T22:36:10.151Z,95369.50
2022-12-16T22:38:36.705Z,95374.03
2022-12-16T22:41:03.463Z,95377.75
2022-12-16T22:43:31.201Z,95373.69
2022-12-16T22:45:59.813Z,95374.53
2022-12-16T22:48:27.297Z,95380.91
2022-12-16T22:50:53.734Z,95383.59
2022-12-16T22:53:22.910Z,95372.91
2022-12-16T22:56:01.684Z,95376.88
2022-12-16T22:58:28.556Z,95377.13
2022-12-16T23:03:43.041Z,95389.91
2022-12-16T23:06:10.689Z,95388.28
2022-12-16T23:08:37.218Z,95385.06
2022-12-16T23:11:03.796Z,95398.16
2022-12-16T23:13:30.264Z,95397.91
2022-12-16T23:15:56.935Z,95398.97
2022-12-16T23:18:23.566Z,95406.19
2022-12-16T23:20:51.639Z,95406.44
2022-12-16T23:23:18.682Z,95408.06
2022-12-16T23:25:58.464Z,95404.00
2022-12-16T23:28:25.121Z,95417.09
2022-12-16T23:30:53.759Z,95417.09
2022-12-16T23:33:20.422Z,95417.09
2022-12-16T23:35:47.670Z,95416.31
2022-12-16T23:38:14.181Z,95414.19
2022-12-16T23:40:40.815Z,95417.91
2022-12-16T23:43:07.492Z,95426.16
2022-12-16T23:45:34.217Z,95416.78
2022-12-16T23:48:09.935Z,95421.59
2022-12-16T23:50:36.406Z,95420.75
2022-12-16T23:53:04.581Z,95422.31
2022-12-16T23:55:31.220Z,95420.94
2022-12-16T23:58:01.512Z,95426.28
